createdAt,value
2019-04-14T00:00:03.650Z,1.8
2019-04-14T00:01:02.095Z,1.8
2019-04-14T00:02:01.240Z,1.8
2019-04-14T00:02:31.947Z,1.8
2019-04-14T00:03:01.167Z,1.8
2019-04-14T00:03:32.218Z,1.8
2019-04-14T00:04:03.164Z,1.8
2019-04-14T00:04:33.857Z,1.8
2019-04-14T00:05:04.354Z,1.8
2019-04-14T00:05:37.187Z,1.8
2019-04-14T00:06:05.309Z,1.8
2019-04-14T00:06:35.580Z,1.8
2019-04-14T00:07:54.358Z,1.7
2019-04-14T00:08:54.253Z,1.7
2019-04-14T00:09:52.549Z,1.7
2019-04-14T00:10:51.322Z,1.7
2019-04-14T00:11:50.993Z,1.6
2019-04-14T00:12:49.698Z,1.6
2019-04-14T00:13:20.083Z,1.6
2019-04-14T00:13:50.644Z,1.7
2019-04-14T00:14:21.331Z,1.7
2019-04-14T00:14:51.890Z,1.7
2019-04-14T00:15:43.872Z,1.7
2019-04-14T00:15:57.149Z,1.7
2019-04-14T00:16:27.536Z,1.7
2019-04-14T00:17:44.176Z,1.8
2019-04-14T00:18:43.158Z,1.8
2019-04-14T00:19:43.649Z,1.8
2019-04-14T00:20:42.527Z,1.8
2019-04-14T00:21:41.567Z,1.8
2019-04-14T00:22:40.036Z,1.8
2019-04-14T00:23:39.425Z,1.8
2019-04-14T00:24:09.927Z,1.8
2019-04-14T00:24:40.459Z,1.8
2019-04-14T00:25:11.003Z,1.8
2019-04-14T00:25:41.676Z,1.8
2019-04-14T00:26:12.016Z,1.8
2019-04-14T00:27:34.961Z,1.8
2019-04-14T00:28:34.094Z,1.8
2019-04-14T00:29:33.395Z,1.7
2019-04-14T00:30:32.137Z,1.7
2019-04-14T00:31:31.294Z,1.7
2019-04-14T00:32:29.581Z,1.7
2019-04-14T00:33:28.601Z,1.7
2019-04-14T00:34:27.338Z,1.6
2019-04-14T00:34:57.792Z,1.6
2019-04-14T00:35:28.340Z,1.6
2019-04-14T00:35:58.615Z,1.6
2019-04-14T00:36:30.404Z,1.6
2019-04-14T00:36:59.438Z,1.6
2019-04-14T00:37:29.893Z,1.6
2019-04-14T00:38:24.297Z,1.6
2019-04-14T00:39:23.166Z,1.5
2019-04-14T00:40:22.096Z,1.5
2019-04-14T00:40:52.304Z,1.5
2019-04-14T00:41:50.777Z,1.5
2019-04-14T00:42:08.511Z,1.5
2019-04-14T00:42:37.011Z,1.5
2019-04-14T00:43:18.426Z,1.4
2019-04-14T00:44:18.638Z,1.4
2019-04-14T00:45:16.153Z,1.4
2019-04-14T00:45:59.061Z,1.4
2019-04-14T00:46:17.341Z,1.4
2019-04-14T00:47:15.644Z,1.4
2019-04-14T00:48:21.317Z,1.4
2019-04-14T00:49:13.481Z,1.4
2019-04-14T00:50:12.428Z,1.4
2019-04-14T00:50:42.977Z,1.4
2019-04-14T00:51:13.658Z,1.4
2019-04-14T00:52:10.585Z,1.4
2019-04-14T00:53:08.397Z,1.4
2019-04-14T00:54:08.600Z,1.4
2019-04-14T00:55:07.938Z,1.4
2019-04-14T00:55:38.208Z,1.4
2019-04-14T00:56:08.805Z,1.4
2019-04-14T00:56:39.355Z,1.4
2019-04-14T00:57:09.858Z,1.4
2019-04-14T00:58:04.352Z,1.4
2019-04-14T00:59:03.295Z,1.4
2019-04-14T01:00:02.229Z,1.4
2019-04-14T01:00:32.557Z,1.4
2019-04-14T01:01:03.240Z,1.4
2019-04-14T01:01:33.446Z,1.4
2019-04-14T01:02:03.909Z,1.4
2019-04-14T01:02:58.525Z,1.4
2019-04-14T01:03:57.528Z,1.4
2019-04-14T01:04:57.380Z,1.4
2019-04-14T01:05:56.758Z,1.4
2019-04-14T01:06:55.391Z,1.4
2019-04-14T01:07:54.644Z,1.4
2019-04-14T01:08:53.598Z,1.4
2019-04-14T01:09:51.499Z,1.4
2019-04-14T01:10:21.899Z,1.4
2019-04-14T01:10:52.515Z,1.3
2019-04-14T01:11:22.871Z,1.3
2019-04-14T01:11:53.644Z,1.3
2019-04-14T01:12:23.937Z,1.3
2019-04-14T01:12:54.435Z,1.4
2019-04-14T01:13:48.862Z,1.3
2019-04-14T01:14:47.752Z,1.3
2019-04-14T01:16:13.837Z,1.3
2019-04-14T01:16:29.902Z,1.3
2019-04-14T01:17:44.401Z,1.3
2019-04-14T01:19:42.195Z,1.3
2019-04-14T01:20:12.964Z,1.3
2019-04-14T01:20:43.069Z,1.3
2019-04-14T01:21:13.340Z,1.3
2019-04-14T01:22:38.552Z,1.3
2019-04-14T01:23:37.596Z,1.3
2019-04-14T01:24:36.415Z,1.3
2019-04-14T01:25:36.718Z,1.3
2019-04-14T01:26:35.880Z,1.3
2019-04-14T01:27:34.661Z,1.3
2019-04-14T01:28:33.444Z,1.3
2019-04-14T01:29:32.529Z,1.3
2019-04-14T01:30:04.462Z,1.3
2019-04-14T01:30:33.255Z,1.3
2019-04-14T01:31:03.840Z,1.3
2019-04-14T01:31:34.101Z,1.3
2019-04-14T01:32:04.729Z,1.3
2019-04-14T01:33:27.678Z,1.3
2019-04-14T01:35:25.486Z,1.3
2019-04-14T01:36:25.810Z,1.3
2019-04-14T01:37:23.327Z,1.3
2019-04-14T01:38:23.569Z,1.3
2019-04-14T01:39:22.693Z,1.3
2019-04-14T01:39:53.034Z,1.3
2019-04-14T01:40:23.330Z,1.3
2019-04-14T01:40:53.673Z,1.3
2019-04-14T01:41:24.300Z,1.3
2019-04-14T01:41:54.809Z,1.3
2019-04-14T01:42:25.053Z,1.3
2019-04-14T01:42:55.406Z,1.3
2019-04-14T01:45:16.700Z,1.3
2019-04-14T01:46:29.907Z,1.3
2019-04-14T01:46:45.822Z,1.3
2019-04-14T01:47:16.428Z,1.3
2019-04-14T01:48:13.138Z,1.3
2019-04-14T01:49:12.037Z,1.3
2019-04-14T01:49:42.383Z,1.3
2019-04-14T01:50:13.264Z,1.3
2019-04-14T01:50:43.548Z,1.3
2019-04-14T01:51:14.051Z,1.3
2019-04-14T01:51:44.746Z,1.3
2019-04-14T01:52:15.088Z,1.3
2019-04-14T01:52:46.112Z,1.3
2019-04-14T01:53:16.572Z,1.2
2019-04-14T01:53:47.016Z,1.2
2019-04-14T01:55:05.229Z,1.2
2019-04-14T01:56:04.255Z,1.2
2019-04-14T01:57:03.242Z,1.2
2019-04-14T01:58:03.433Z,1.2
2019-04-14T01:59:02.661Z,1.2
2019-04-14T01:59:33.117Z,1.2
2019-04-14T02:00:03.747Z,1.2
2019-04-14T02:00:34.185Z,1.2
2019-04-14T02:01:04.648Z,1.2
2019-04-14T02:01:35.087Z,1.2
2019-04-14T02:02:05.584Z,1.2
2019-04-14T02:02:36.222Z,1.2
2019-04-14T02:03:06.524Z,1.1
2019-04-14T02:03:37.004Z,1.1
2019-04-14T02:04:55.870Z,1.1
2019-04-14T02:05:54.462Z,1.1
2019-04-14T02:06:53.394Z,1.1
2019-04-14T02:07:53.996Z,1
2019-04-14T02:08:52.743Z,1
2019-04-14T02:09:51.608Z,1
2019-04-14T02:10:22.095Z,1
2019-04-14T02:10:52.557Z,1
2019-04-14T02:11:22.981Z,1
2019-04-14T02:11:53.587Z,1
2019-04-14T02:12:24.031Z,1
2019-04-14T02:12:54.837Z,1
2019-04-14T02:13:25.192Z,1
2019-04-14T02:14:45.709Z,0.9
2019-04-14T02:15:44.768Z,0.9
2019-04-14T02:16:59.372Z,0.9
2019-04-14T02:17:15.579Z,0.9
2019-04-14T02:17:46.211Z,0.9
2019-04-14T02:18:42.967Z,0.9
2019-04-14T02:19:41.579Z,0.9
2019-04-14T02:20:12.022Z,0.9
2019-04-14T02:20:42.459Z,0.9
2019-04-14T02:21:13.098Z,0.9
2019-04-14T02:21:43.333Z,0.9
2019-04-14T02:22:13.692Z,0.9
2019-04-14T02:22:44.345Z,0.9
2019-04-14T02:23:14.556Z,0.9
2019-04-14T02:24:35.731Z,0.9
2019-04-14T02:25:34.435Z,1
2019-04-14T02:26:33.568Z,1
2019-04-14T02:27:32.318Z,1
2019-04-14T02:28:31.555Z,1
2019-04-14T02:29:30.335Z,1.1
2019-04-14T02:30:56.551Z,1.1
2019-04-14T02:34:07.199Z,1.1
2019-04-14T02:37:54.244Z,1.1
2019-04-14T02:41:10.458Z,1.1
2019-04-14T02:44:35.972Z,1.1
2019-04-14T02:48:14.308Z,1.1
2019-04-14T02:51:39.729Z,1.1
2019-04-14T02:55:20.826Z,1.1
